Time;durP1;ratioP1;P1;durP2;ratioP2;P2;SDS_P1;SDS_P2;PMS_P1;PMS_P2;Temp;Humidity;BMP_temperature;BMP_pressure;BME280_temperature;BME280_humidity;BME280_pressure;Samples;Min_cycle;Max_cycle;Signal;HPM_P1;HPM_P2
2022/10/18 00:00:07;;;;;;;3.97;2.30;;;13.80;98.00;;;;;;5111886;28;20872;-67
2022/10/18 00:02:34;;;;;;;4.40;2.60;;;13.70;98.00;;;;;;5111504;28;20458;-67
2022/10/18 00:05:02;;;;;;;3.10;2.03;;;13.80;98.00;;;;;;5111837;28;20456;-67
2022/10/18 00:07:30;;;;;;;3.53;2.80;;;13.90;98.00;;;;;;5110796;28;20458;-67
2022/10/18 00:09:57;;;;;;;3.80;2.50;;;13.90;98.00;;;;;;5111771;28;20459;-66
2022/10/18 00:12:24;;;;;;;4.83;2.93;;;14.00;98.00;;;;;;5110615;28;20931;-67
2022/10/18 00:14:52;;;;;;;3.57;2.50;;;14.00;98.00;;;;;;5111606;28;20462;-67
2022/10/18 00:17:19;;;;;;;2.93;2.27;;;14.00;98.00;;;;;;5111548;28;20498;-66
2022/10/18 00:19:47;;;;;;;4.13;2.67;;;13.90;98.00;;;;;;5111842;28;20862;-66
2022/10/18 00:22:19;;;;;;;4.53;2.30;;;13.90;98.00;;;;;;5111897;28;20454;-67
2022/10/18 00:24:48;;;;;;;6.67;2.80;;;13.90;98.00;;;;;;5110426;28;20493;-67
2022/10/18 00:27:15;;;;;;;15.07;2.73;;;13.80;98.00;;;;;;5111409;28;20458;-67
2022/10/18 00:29:45;;;;;;;4.13;2.30;;;13.80;98.00;;;;;;5111700;28;20456;-67
2022/10/18 00:32:12;;;;;;;6.77;2.43;;;13.90;98.00;;;;;;5111684;28;20450;-67
2022/10/18 00:34:39;;;;;;;4.13;2.47;;;14.00;98.00;;;;;;5111812;28;20480;-67
2022/10/18 00:37:06;;;;;;;4.80;2.83;;;14.00;98.00;;;;;;5111570;28;20489;-67
2022/10/18 00:39:35;;;;;;;6.80;3.50;;;14.00;98.00;;;;;;5111581;28;20457;-67
2022/10/18 00:42:04;;;;;;;11.40;2.87;;;14.00;98.00;;;;;;5111614;28;20933;-67
2022/10/18 00:45:06;;;;;;;4.40;2.30;;;13.90;98.00;;;;;;5111586;28;20523;-67
2022/10/18 00:47:35;;;;;;;3.90;2.53;;;13.90;98.00;;;;;;5111492;28;20462;-67
2022/10/18 00:50:04;;;;;;;4.43;2.47;;;14.00;98.00;;;;;;5111651;28;21028;-67
2022/10/18 00:52:35;;;;;;;5.13;2.50;;;14.00;98.00;;;;;;5111380;28;20466;-67
2022/10/18 00:55:03;;;;;;;3.50;2.20;;;13.90;98.00;;;;;;5111352;28;20937;-67
2022/10/18 00:57:32;;;;;;;2.53;2.20;;;13.90;98.00;;;;;;5111068;28;20894;-67
2022/10/18 01:00:00;;;;;;;3.83;2.60;;;13.90;98.00;;;;;;5111199;28;20454;-67
2022/10/18 01:02:29;;;;;;;4.83;2.50;;;13.90;98.00;;;;;;5111301;28;20511;-67
2022/10/18 01:04:56;;;;;;;3.07;2.13;;;13.80;98.00;;;;;;5111164;28;20484;-67
2022/10/18 01:07:37;;;;;;;3.67;2.33;;;13.80;98.00;;;;;;5111048;28;20867;-67
2022/10/18 01:10:23;;;;;;;4.00;2.80;;;13.80;98.00;;;;;;5111397;28;20881;-66
2022/10/18 01:13:01;;;;;;;4.30;2.87;;;13.90;98.00;;;;;;5111282;28;20462;-66
2022/10/18 01:15:31;;;;;;;3.60;2.40;;;13.90;98.00;;;;;;5114917;28;20454;-66
2022/10/18 01:18:07;;;;;;;4.17;2.37;;;13.80;98.00;;;;;;5114939;28;20463;-67
2022/10/18 01:21:10;;;;;;;3.77;2.23;;;13.80;98.00;;;;;;5114779;28;20473;-67
2022/10/18 01:24:08;;;;;;;2.40;2.20;;;13.70;98.00;;;;;;5104117;28;20472;-67
2022/10/18 01:26:54;;;;;;;2.67;2.20;;;13.60;98.00;;;;;;5114889;28;20458;-67
2022/10/18 01:29:37;;;;;;;3.80;1.90;;;13.60;98.00;;;;;;5113637;28;20465;-67
2022/10/18 01:32:10;;;;;;;6.47;2.07;;;13.70;98.00;;;;;;5114933;28;20868;-67
2022/10/18 01:34:41;;;;;;;4.10;2.40;;;13.80;98.00;;;;;;5115014;28;20873;-67
2022/10/18 01:37:11;;;;;;;2.27;2.03;;;13.90;98.00;;;;;;5114790;28;20481;-67
2022/10/18 01:39:42;;;;;;;2.67;1.90;;;13.90;98.00;;;;;;5114746;27;20461;-66
2022/10/18 01:42:12;;;;;;;2.93;1.90;;;14.00;98.00;;;;;;5114666;28;20829;-66
2022/10/18 01:44:41;;;;;;;2.60;1.87;;;13.90;98.00;;;;;;5113277;28;20964;-67
2022/10/18 01:47:12;;;;;;;2.90;2.10;;;14.00;98.00;;;;;;5114488;28;20466;-67
2022/10/18 01:49:39;;;;;;;3.73;2.17;;;14.10;98.00;;;;;;5114319;28;20453;-67
2022/10/18 01:52:06;;;;;;;2.40;2.30;;;14.10;98.00;;;;;;5114287;28;20868;-67
2022/10/18 01:54:39;;;;;;;3.13;2.10;;;14.30;98.00;;;;;;5114524;28;20461;-67
2022/10/18 01:57:12;;;;;;;3.30;2.00;;;14.30;98.00;;;;;;5114173;28;20490;-67
2022/10/18 01:59:50;;;;;;;2.23;1.70;;;14.20;98.00;;;;;;5114363;28;20455;-67
2022/10/18 02:02:34;;;;;;;5.07;2.50;;;14.30;98.00;;;;;;5114119;28;20462;-67
2022/10/18 02:05:06;;;;;;;2.93;2.30;;;14.40;98.00;;;;;;5114092;28;20864;-67
2022/10/18 02:07:39;;;;;;;4.40;2.27;;;14.30;98.00;;;;;;5114085;28;20821;-67
2022/10/18 02:10:11;;;;;;;3.50;2.20;;;14.30;98.00;;;;;;5112840;28;20462;-67
2022/10/18 02:12:41;;;;;;;3.90;2.20;;;14.40;98.00;;;;;;5114113;28;20458;-67
2022/10/18 02:15:13;;;;;;;2.50;2.27;;;14.60;98.00;;;;;;5113851;28;20468;-67
2022/10/18 02:17:44;;;;;;;6.23;2.73;;;14.50;98.00;;;;;;5096190;28;21149;-67
2022/10/18 02:20:13;;;;;;;4.30;2.50;;;14.50;98.00;;;;;;5113882;28;20810;-67
2022/10/18 02:22:42;;;;;;;2.93;2.37;;;14.50;98.00;;;;;;5113809;28;20527;-67
2022/10/18 02:25:16;;;;;;;2.33;1.97;;;14.40;98.00;;;;;;5113065;28;20455;-66
2022/10/18 02:27:43;;;;;;;3.97;2.13;;;14.40;98.00;;;;;;5112772;28;20838;-67
2022/10/18 02:30:11;;;;;;;2.47;2.00;;;14.40;98.00;;;;;;5112468;28;20469;-67
2022/10/18 02:32:43;;;;;;;5.33;2.90;;;14.50;98.00;;;;;;5113905;28;20458;-67
2022/10/18 02:35:18;;;;;;;9.00;2.30;;;14.40;98.00;;;;;;5113845;28;20459;-67
2022/10/18 02:37:50;;;;;;;2.00;1.70;;;14.50;98.00;;;;;;5113664;28;20540;-67
2022/10/18 02:40:17;;;;;;;3.80;2.00;;;14.50;98.00;;;;;;5113357;28;20451;-67
2022/10/18 02:42:47;;;;;;;2.57;2.00;;;14.60;98.00;;;;;;5113485;28;20450;-67
2022/10/18 02:45:15;;;;;;;3.10;1.97;;;14.60;98.00;;;;;;5113415;28;20882;-67
2022/10/18 02:47:43;;;;;;;3.10;2.07;;;14.60;98.00;;;;;;5112143;28;20516;-67
2022/10/18 02:50:11;;;;;;;4.80;2.30;;;14.60;98.00;;;;;;5113267;28;20451;-67
2022/10/18 02:52:38;;;;;;;3.93;2.40;;;14.60;98.00;;;;;;5112006;28;20470;-67
2022/10/18 02:55:09;;;;;;;6.20;2.30;;;14.50;98.00;;;;;;5111788;28;20463;-66
2022/10/18 02:57:37;;;;;;;3.03;2.10;;;14.40;98.00;;;;;;5111614;28;20495;-67
2022/10/18 03:00:05;;;;;;;5.93;2.70;;;14.40;98.00;;;;;;5112997;28;20476;-67
2022/10/18 03:02:32;;;;;;;3.00;2.23;;;14.20;98.00;;;;;;5113032;28;20950;-67
2022/10/18 03:05:00;;;;;;;3.40;2.37;;;14.20;98.00;;;;;;5112991;28;20464;-67
2022/10/18 03:07:27;;;;;;;3.07;2.20;;;14.20;98.00;;;;;;5112792;28;20459;-67
2022/10/18 03:09:54;;;;;;;3.10;2.03;;;14.10;98.00;;;;;;5111525;28;20462;-67
2022/10/18 03:12:21;;;;;;;4.53;2.40;;;14.10;98.00;;;;;;5112721;28;20952;-67
2022/10/18 03:14:48;;;;;;;3.30;2.30;;;14.20;98.00;;;;;;5112591;28;20447;-67
2022/10/18 03:19:57;;;;;;;4.90;2.87;;;14.30;98.00;;;;;;5111083;28;20461;-67
2022/10/18 03:22:26;;;;;;;2.90;2.10;;;14.10;98.00;;;;;;5112651;28;20463;-67
2022/10/18 03:24:53;;;;;;;2.50;2.03;;;14.20;98.00;;;;;;5112529;28;20542;-67
2022/10/18 03:27:20;;;;;;;3.50;2.40;;;14.20;98.00;;;;;;5112587;28;20494;-66
2022/10/18 03:29:48;;;;;;;3.27;1.90;;;14.40;98.00;;;;;;5112503;28;20955;-67
2022/10/18 03:32:15;;;;;;;5.00;2.50;;;14.50;98.00;;;;;;5112250;28;20462;-66
2022/10/18 03:34:42;;;;;;;3.17;2.17;;;14.40;98.00;;;;;;5112664;28;20802;-67
2022/10/18 03:37:09;;;;;;;5.47;2.67;;;14.30;98.00;;;;;;5111602;28;20508;-66
2022/10/18 03:39:38;;;;;;;4.10;2.73;;;14.30;98.00;;;;;;5112418;28;20542;-67
2022/10/18 03:42:05;;;;;;;5.33;2.30;;;14.10;98.00;;;;;;5112374;28;20524;-66
2022/10/18 03:44:32;;;;;;;2.83;2.07;;;14.00;98.00;;;;;;5112256;28;20512;-67
2022/10/18 03:46:59;;;;;;;3.37;2.10;;;13.90;98.00;;;;;;5112254;28;20534;-67
2022/10/18 03:49:26;;;;;;;5.47;2.83;;;13.80;98.00;;;;;;5110671;28;20467;-66
2022/10/18 03:51:53;;;;;;;8.93;2.30;;;13.80;98.00;;;;;;5112183;28;20466;-66
2022/10/18 03:54:20;;;;;;;3.30;2.30;;;13.80;98.00;;;;;;5112020;28;20967;-66
2022/10/18 03:56:49;;;;;;;8.10;3.07;;;14.00;98.00;;;;;;5112035;28;20481;-67
2022/10/18 03:59:16;;;;;;;5.37;2.70;;;14.10;98.00;;;;;;5111990;28;20463;-67
2022/10/18 04:01:43;;;;;;;5.70;2.87;;;14.20;98.00;;;;;;5111899;28;20451;-66
2022/10/18 04:04:10;;;;;;;5.50;1.80;;;14.20;98.00;;;;;;5111800;28;20467;-66
2022/10/18 04:06:37;;;;;;;3.57;2.07;;;14.20;98.00;;;;;;5112021;28;20461;-67
2022/10/18 04:09:04;;;;;;;3.00;1.90;;;14.30;98.00;;;;;;5111727;28;20941;-67
2022/10/18 04:11:31;;;;;;;4.40;2.43;;;14.40;98.00;;;;;;5111771;28;21024;-67
2022/10/18 04:14:01;;;;;;;3.77;2.30;;;14.40;98.00;;;;;;5111771;28;20940;-66
2022/10/18 04:16:28;;;;;;;4.13;2.50;;;14.40;98.00;;;;;;5111889;28;20814;-67
2022/10/18 04:18:56;;;;;;;3.97;2.30;;;14.40;98.00;;;;;;5111664;28;20458;-67
2022/10/18 04:21:23;;;;;;;3.63;2.27;;;14.50;98.00;;;;;;5111622;28;20458;-66
2022/10/18 04:23:51;;;;;;;3.17;2.10;;;14.50;98.00;;;;;;5111632;28;20454;-67
2022/10/18 04:26:18;;;;;;;2.73;2.20;;;14.30;98.00;;;;;;5111732;28;20457;-66
2022/10/18 04:28:46;;;;;;;4.90;2.23;;;14.30;98.00;;;;;;5111584;28;20467;-66
2022/10/18 04:31:16;;;;;;;4.20;2.43;;;14.20;98.00;;;;;;5111608;28;20457;-67
2022/10/18 04:33:43;;;;;;;8.90;2.73;;;14.30;98.00;;;;;;5112018;28;20859;-67
2022/10/18 04:36:19;;;;;;;3.83;2.53;;;14.40;98.00;;;;;;5111927;28;20465;-66
2022/10/18 04:38:46;;;;;;;2.90;2.10;;;14.50;98.00;;;;;;5111984;28;20922;-66
2022/10/18 04:41:13;;;;;;;3.90;2.50;;;14.50;98.00;;;;;;5111804;28;20453;-67
2022/10/18 04:43:41;;;;;;;3.30;2.20;;;14.60;98.00;;;;;;5111437;28;20454;-67
2022/10/18 04:46:08;;;;;;;3.00;2.20;;;14.50;98.00;;;;;;5111585;28;20849;-67
2022/10/18 04:48:37;;;;;;;3.63;2.57;;;14.50;98.00;;;;;;5112461;28;20759;-67
2022/10/18 04:51:04;;;;;;;4.30;2.60;;;14.60;98.00;;;;;;5114273;28;20464;-66
2022/10/18 04:53:32;;;;;;;4.23;2.33;;;14.50;98.00;;;;;;5115481;27;20466;-67
2022/10/18 04:55:59;;;;;;;5.17;2.33;;;14.40;98.00;;;;;;5115336;28;20997;-67
2022/10/18 04:58:26;;;;;;;3.23;2.57;;;14.40;98.00;;;;;;5115164;28;20489;-67
2022/10/18 05:00:53;;;;;;;4.37;2.50;;;14.50;98.00;;;;;;5115263;28;20454;-66
2022/10/18 05:03:20;;;;;;;9.83;2.63;;;14.60;98.00;;;;;;5115208;28;20462;-67
2022/10/18 05:05:49;;;;;;;3.13;2.37;;;14.60;98.00;;;;;;5115080;28;20461;-67
2022/10/18 05:08:16;;;;;;;7.53;2.30;;;14.50;98.00;;;;;;5113802;28;20466;-67
2022/10/18 05:10:43;;;;;;;3.90;2.77;;;14.40;98.00;;;;;;5115118;27;21111;-66
2022/10/18 05:13:10;;;;;;;4.53;2.70;;;14.50;98.00;;;;;;5115222;28;20515;-67
2022/10/18 05:15:37;;;;;;;5.97;2.87;;;14.40;98.00;;;;;;5114920;28;20450;-67
2022/10/18 05:18:04;;;;;;;2.30;2.00;;;14.30;98.00;;;;;;5115028;28;20530;-67
2022/10/18 05:20:31;;;;;;;4.00;2.50;;;14.30;98.00;;;;;;5114858;28;20449;-66
2022/10/18 05:23:00;;;;;;;2.63;1.73;;;14.20;98.00;;;;;;5115033;28;20450;-67
2022/10/18 05:25:27;;;;;;;3.07;2.13;;;14.10;98.00;;;;;;5114813;28;20460;-66
2022/10/18 05:27:54;;;;;;;4.70;2.20;;;14.10;98.00;;;;;;5115064;28;20488;-67
2022/10/18 05:30:22;;;;;;;4.07;2.30;;;14.20;98.00;;;;;;5114864;28;20458;-67
2022/10/18 05:32:52;;;;;;;6.50;2.83;;;14.20;98.00;;;;;;5114888;28;20454;-67
2022/10/18 05:35:19;;;;;;;5.00;2.47;;;14.30;98.00;;;;;;5114814;28;20983;-67
2022/10/18 05:37:46;;;;;;;2.87;2.23;;;14.30;98.00;;;;;;5114889;28;20483;-67
2022/10/18 05:40:14;;;;;;;6.77;2.40;;;14.40;98.00;;;;;;5113603;28;20866;-67
2022/10/18 05:42:41;;;;;;;4.70;2.40;;;14.40;98.00;;;;;;5114741;28;20458;-66
2022/10/18 05:45:09;;;;;;;3.53;1.97;;;14.40;98.00;;;;;;5113185;28;20456;-66
2022/10/18 05:47:36;;;;;;;3.93;2.33;;;14.10;98.00;;;;;;5114466;28;20863;-66
2022/10/18 05:50:04;;;;;;;3.83;2.27;;;14.00;98.00;;;;;;5114429;28;20460;-67
2022/10/18 05:52:31;;;;;;;3.83;2.47;;;14.00;98.00;;;;;;5113112;28;20458;-67
2022/10/18 05:54:58;;;;;;;4.80;2.80;;;14.00;98.00;;;;;;5114449;28;20453;-67
2022/10/18 05:57:27;;;;;;;3.10;2.00;;;14.00;98.00;;;;;;5113875;28;20490;-64
2022/10/18 05:59:54;;;;;;;2.27;2.00;;;14.00;98.00;;;;;;5113371;28;20465;-64
2022/10/18 06:02:21;;;;;;;2.83;2.10;;;14.00;98.00;;;;;;5112799;28;20476;-65
2022/10/18 06:04:48;;;;;;;3.47;2.53;;;14.20;98.00;;;;;;5113958;28;20471;-65
2022/10/18 06:07:16;;;;;;;4.70;3.03;;;14.20;98.00;;;;;;5112830;28;20980;-65
2022/10/18 06:09:43;;;;;;;5.57;2.83;;;14.10;98.00;;;;;;5113919;28;20458;-65
2022/10/18 06:12:10;;;;;;;3.03;2.30;;;14.20;98.00;;;;;;5114296;27;20818;-64
2022/10/18 06:14:39;;;;;;;6.73;2.80;;;14.30;98.00;;;;;;5113889;28;20450;-66
2022/10/18 06:17:06;;;;;;;5.23;2.90;;;14.20;98.00;;;;;;5113923;28;20507;-66
2022/10/18 06:19:33;;;;;;;4.30;2.60;;;14.10;98.00;;;;;;5113885;28;20871;-65
2022/10/18 06:22:00;;;;;;;5.10;2.73;;;14.20;98.00;;;;;;5113807;28;20460;-65
2022/10/18 06:24:27;;;;;;;4.53;2.40;;;14.30;98.00;;;;;;5113678;27;20450;-65
2022/10/18 06:26:54;;;;;;;4.90;2.60;;;14.30;98.00;;;;;;5113754;28;20453;-64
2022/10/18 06:29:29;;;;;;;5.63;2.60;;;14.30;98.00;;;;;;5113365;28;20471;-65
2022/10/18 06:31:59;;;;;;;5.77;3.00;;;14.20;98.00;;;;;;5113653;28;20824;-65
2022/10/18 06:34:26;;;;;;;5.00;2.80;;;14.10;98.00;;;;;;5113530;28;20459;-66
2022/10/18 06:36:53;;;;;;;2.80;2.10;;;14.20;98.00;;;;;;5113752;28;20485;-65
2022/10/18 06:39:20;;;;;;;3.27;2.40;;;14.20;98.00;;;;;;5112290;28;21004;-65
2022/10/18 06:41:47;;;;;;;4.70;2.90;;;14.20;98.00;;;;;;5113635;28;20449;-65
2022/10/18 06:44:16;;;;;;;4.00;2.47;;;14.20;98.00;;;;;;5113350;28;20463;-65
2022/10/18 06:46:44;;;;;;;3.33;2.23;;;14.10;98.00;;;;;;5113310;28;20452;-66
2022/10/18 06:49:14;;;;;;;3.70;2.07;;;14.10;98.00;;;;;;5111982;28;20562;-64
2022/10/18 06:51:45;;;;;;;3.23;2.00;;;14.10;98.00;;;;;;5113319;28;20459;-66
2022/10/18 06:54:12;;;;;;;8.73;2.20;;;14.10;98.00;;;;;;5113155;28;20476;-65
2022/10/18 06:56:41;;;;;;;2.57;1.90;;;14.10;98.00;;;;;;5113177;28;20896;-65
2022/10/18 06:59:08;;;;;;;3.47;2.23;;;14.20;98.00;;;;;;5112735;28;21014;-65
2022/10/18 07:01:36;;;;;;;6.60;3.17;;;14.40;98.00;;;;;;5111765;28;20458;-65
2022/10/18 07:04:03;;;;;;;4.13;2.40;;;14.50;98.00;;;;;;5112883;28;20463;-64
2022/10/18 07:06:31;;;;;;;3.80;2.53;;;14.70;98.00;;;;;;5113040;28;20454;-64
2022/10/18 07:09:01;;;;;;;3.97;2.50;;;14.80;98.00;;;;;;5112782;28;20469;-65
2022/10/18 07:11:28;;;;;;;3.57;2.60;;;15.00;98.00;;;;;;5112581;28;20962;-64
2022/10/18 07:14:03;;;;;;;4.37;2.73;;;15.10;98.00;;;;;;5112773;28;20459;-64
2022/10/18 07:16:31;;;;;;;6.10;2.73;;;15.30;98.00;;;;;;5112737;28;20453;-64
2022/10/18 07:18:58;;;;;;;20.17;2.90;;;15.40;98.00;;;;;;5112585;28;20493;-64
2022/10/18 07:21:26;;;;;;;4.83;2.70;;;15.50;98.00;;;;;;5112570;28;21009;-65
2022/10/18 07:23:54;;;;;;;4.07;2.53;;;15.60;98.00;;;;;;5111255;28;20863;-65
2022/10/18 07:26:23;;;;;;;4.03;2.60;;;15.60;98.00;;;;;;5112512;28;20472;-65
2022/10/18 07:28:53;;;;;;;5.17;2.80;;;15.60;98.00;;;;;;5111228;28;20857;-65
2022/10/18 07:31:21;;;;;;;2.63;2.00;;;15.70;98.00;;;;;;5112474;28;20462;-65
2022/10/18 07:33:48;;;;;;;4.07;2.40;;;15.80;98.00;;;;;;5112383;28;20827;-64
2022/10/18 07:36:15;;;;;;;4.63;2.73;;;15.90;98.00;;;;;;5112513;28;20825;-65
2022/10/18 07:38:43;;;;;;;3.47;2.30;;;16.00;98.00;;;;;;5112598;28;20479;-64
2022/10/18 07:41:13;;;;;;;3.00;2.30;;;16.20;98.00;;;;;;5111098;28;20474;-64
2022/10/18 07:43:43;;;;;;;4.07;2.57;;;16.20;98.00;;;;;;5112481;28;20473;-64
2022/10/18 07:46:10;;;;;;;4.23;2.80;;;16.40;98.00;;;;;;5112102;28;20471;-62
2022/10/18 07:48:37;;;;;;;5.27;2.83;;;16.40;98.00;;;;;;5111092;28;20459;-63
2022/10/18 07:51:05;;;;;;;7.70;3.10;;;16.50;98.00;;;;;;5112192;28;20516;-64
2022/10/18 07:53:33;;;;;;;3.03;2.23;;;16.50;98.00;;;;;;5112167;28;20467;-65
2022/10/18 07:56:01;;;;;;;6.83;3.07;;;16.50;98.00;;;;;;5110946;28;20512;-65
2022/10/18 07:58:31;;;;;;;4.17;2.70;;;16.50;98.00;;;;;;5111646;28;20482;-65
2022/10/18 08:01:02;;;;;;;5.97;2.83;;;16.50;98.00;;;;;;5112124;28;20455;-64
2022/10/18 08:03:29;;;;;;;4.10;2.93;;;16.50;98.00;;;;;;5112010;28;20487;-63
2022/10/18 08:05:59;;;;;;;4.23;2.80;;;16.60;98.00;;;;;;5111872;28;20454;-66
2022/10/18 08:08:27;;;;;;;6.93;2.70;;;16.70;98.00;;;;;;5111883;28;20459;-65
2022/10/18 08:10:54;;;;;;;4.60;2.70;;;16.80;98.00;;;;;;5111886;28;20469;-64
2022/10/18 08:13:21;;;;;;;3.80;2.60;;;16.90;98.00;;;;;;5111804;28;20458;-65
2022/10/18 08:15:50;;;;;;;4.97;2.93;;;17.00;98.00;;;;;;5111813;28;20530;-65
2022/10/18 08:18:17;;;;;;;5.43;2.90;;;17.00;98.00;;;;;;5111577;28;20487;-64
2022/10/18 08:20:45;;;;;;;5.83;3.13;;;17.00;98.00;;;;;;5111758;28;20462;-64
2022/10/18 08:23:12;;;;;;;4.90;2.70;;;17.10;98.00;;;;;;5111090;28;20980;-65
2022/10/18 08:25:39;;;;;;;3.90;2.40;;;17.10;98.00;;;;;;5111488;28;20949;-64
2022/10/18 08:28:07;;;;;;;6.23;2.83;;;17.20;98.00;;;;;;5111569;28;20800;-65
2022/10/18 08:30:35;;;;;;;3.87;2.73;;;17.30;98.00;;;;;;5110486;28;20459;-64
2022/10/18 08:33:04;;;;;;;3.77;2.60;;;17.40;98.00;;;;;;5111614;28;20459;-65
2022/10/18 08:35:31;;;;;;;4.03;2.60;;;17.50;98.00;;;;;;5110394;28;20462;-65
2022/10/18 08:37:58;;;;;;;4.60;2.90;;;17.70;98.00;;;;;;5111877;28;20561;-64
2022/10/18 08:40:27;;;;;;;4.37;3.00;;;17.90;98.00;;;;;;5111814;28;20458;-64
2022/10/18 08:43:09;;;;;;;5.47;3.10;;;18.10;98.00;;;;;;5111698;28;20447;-66
2022/10/18 08:45:40;;;;;;;7.20;2.90;;;18.30;98.00;;;;;;5111678;28;20960;-65
2022/10/18 08:48:20;;;;;;;5.53;3.00;;;18.40;98.00;;;;;;5111494;28;20820;-64
2022/10/18 08:50:48;;;;;;;5.50;3.30;;;18.40;98.00;;;;;;5111574;28;20823;-65
2022/10/18 08:53:24;;;;;;;5.40;3.33;;;18.40;98.00;;;;;;5111493;28;20463;-64
2022/10/18 08:55:55;;;;;;;4.60;2.70;;;18.60;98.00;;;;;;5111515;28;20493;-64
2022/10/18 08:58:23;;;;;;;3.63;2.33;;;18.70;98.00;;;;;;5111102;28;20848;-66
2022/10/18 09:01:01;;;;;;;4.30;2.63;;;18.80;98.00;;;;;;5111331;28;20948;-66
2022/10/18 09:03:51;;;;;;;4.73;2.57;;;18.90;98.00;;;;;;5111346;28;20461;-66
2022/10/18 09:06:27;;;;;;;3.70;2.30;;;19.00;98.00;;;;;;5111186;28;20832;-64
2022/10/18 09:09:08;;;;;;;4.07;2.50;;;19.00;98.00;;;;;;5111407;28;20454;-65
2022/10/18 09:11:58;;;;;;;5.63;2.67;;;19.00;98.00;;;;;;5110128;28;21010;-64
2022/10/18 09:14:44;;;;;;;4.13;2.47;;;19.00;98.00;;;;;;5111183;28;20451;-66
2022/10/18 09:17:19;;;;;;;3.50;2.50;;;19.10;98.00;;;;;;5110196;28;20471;-64
2022/10/18 09:20:12;;;;;;;4.03;2.80;;;19.20;98.00;;;;;;5111378;28;20485;-65
2022/10/18 09:22:52;;;;;;;4.00;2.37;;;19.50;98.00;;;;;;5110999;28;20458;-65
2022/10/18 09:25:21;;;;;;;4.70;2.43;;;19.80;98.00;;;;;;5111016;28;20541;-65
2022/10/18 09:27:56;;;;;;;4.70;2.93;;;20.00;98.00;;;;;;5111174;28;20462;-66
2022/10/18 09:30:50;;;;;;;4.73;2.80;;;20.10;98.00;;;;;;5111059;28;20458;-65
2022/10/18 09:33:37;;;;;;;5.43;2.43;;;20.20;98.00;;;;;;5108641;28;20478;-65
2022/10/18 09:36:12;;;;;;;5.23;2.70;;;20.40;98.00;;;;;;5112868;28;20454;-64
2022/10/18 09:38:45;;;;;;;5.33;2.60;;;20.60;98.00;;;;;;5114853;28;20891;-67
2022/10/18 09:41:19;;;;;;;3.47;2.30;;;20.70;98.00;;;;;;5114811;28;20875;-65
2022/10/18 09:43:52;;;;;;;6.80;3.00;;;20.70;98.00;;;;;;5113562;28;20459;-65
2022/10/18 09:46:22;;;;;;;3.87;2.63;;;20.70;98.00;;;;;;5114501;28;20504;-65
2022/10/18 09:48:53;;;;;;;3.80;2.40;;;20.80;98.00;;;;;;5114412;28;20455;-65
2022/10/18 09:51:26;;;;;;;4.73;2.70;;;21.10;98.00;;;;;;5114516;28;20527;-66
2022/10/18 09:54:15;;;;;;;4.33;2.67;;;21.20;98.00;;;;;;5114392;28;20979;-67
2022/10/18 09:56:47;;;;;;;7.80;2.40;;;21.40;98.00;;;;;;5114531;28;20465;-67
2022/10/18 09:59:35;;;;;;;4.47;2.57;;;21.60;98.00;;;;;;5113975;28;20515;-67
2022/10/18 10:02:02;;;;;;;5.70;2.70;;;21.90;98.00;;;;;;5114308;28;20477;-66
2022/10/18 10:04:29;;;;;;;2.90;2.13;;;22.10;98.00;;;;;;5114124;28;20463;-66
2022/10/18 10:07:00;;;;;;;4.03;2.53;;;22.20;98.00;;;;;;5114136;28;20455;-66
2022/10/18 10:09:28;;;;;;;2.50;2.00;;;22.20;98.00;;;;;;5114007;28;20451;-66
2022/10/18 10:11:57;;;;;;;3.63;2.70;;;22.10;98.00;;;;;;5114283;28;20796;-66
2022/10/18 10:14:26;;;;;;;4.37;2.63;;;22.00;98.00;;;;;;5113783;28;20455;-65
2022/10/18 10:16:55;;;;;;;3.60;2.60;;;22.10;98.00;;;;;;5113833;28;20508;-65
2022/10/18 10:19:31;;;;;;;5.27;3.03;;;22.10;98.00;;;;;;5113937;28;20482;-65
2022/10/18 10:22:06;;;;;;;3.57;2.33;;;22.10;98.00;;;;;;5113939;28;20523;-64
2022/10/18 10:24:49;;;;;;;3.20;2.37;;;22.30;98.00;;;;;;5113810;28;20738;-63
2022/10/18 10:27:19;;;;;;;4.60;2.60;;;22.40;98.00;;;;;;5113696;28;20520;-63
2022/10/18 10:29:57;;;;;;;3.47;2.50;;;22.50;98.00;;;;;;5113907;28;20558;-64
2022/10/18 10:32:28;;;;;;;3.40;2.27;;;22.50;98.00;;;;;;5113690;28;20458;-63
2022/10/18 10:34:56;;;;;;;3.53;2.60;;;22.40;98.00;;;;;;5113666;28;20504;-64
2022/10/18 10:37:34;;;;;;;8.20;2.90;;;22.40;98.00;;;;;;5113683;28;20807;-63
2022/10/18 10:40:16;;;;;;;5.60;2.50;;;22.40;98.00;;;;;;5111730;28;20478;-63
2022/10/18 10:42:57;;;;;;;5.43;2.73;;;22.30;98.00;;;;;;5113648;28;20465;-63
2022/10/18 10:45:27;;;;;;;4.23;2.57;;;22.20;98.00;;;;;;5113485;28;20465;-63
2022/10/18 10:48:03;;;;;;;3.30;2.40;;;22.20;98.00;;;;;;5113052;28;20515;-65
2022/10/18 10:50:31;;;;;;;3.40;2.60;;;22.10;98.00;;;;;;5113286;28;20488;-66
2022/10/18 10:52:59;;;;;;;4.97;2.47;;;22.20;98.00;;;;;;5113207;28;20483;-65
2022/10/18 10:55:33;;;;;;;3.60;2.43;;;22.50;98.00;;;;;;5113047;28;20460;-65
2022/10/18 10:58:00;;;;;;;5.63;2.53;;;22.90;98.00;;;;;;5113028;28;20466;-66
2022/10/18 11:00:39;;;;;;;4.00;2.43;;;23.20;98.00;;;;;;5112882;28;20490;-64
2022/10/18 11:03:11;;;;;;;3.83;2.60;;;23.30;98.00;;;;;;5113018;28;20462;-64
2022/10/18 11:05:47;;;;;;;2.87;2.27;;;23.10;98.00;;;;;;5112947;28;20550;-64
2022/10/18 11:08:20;;;;;;;3.70;2.37;;;22.80;98.00;;;;;;5112789;28;20462;-64
2022/10/18 11:11:01;;;;;;;3.57;2.37;;;22.50;98.00;;;;;;5112809;28;20463;-64
2022/10/18 11:13:46;;;;;;;8.57;2.70;;;22.30;98.00;;;;;;5112848;28;21021;-65
2022/10/18 11:16:18;;;;;;;3.87;2.53;;;22.20;98.00;;;;;;5112793;28;20856;-65
2022/10/18 11:18:49;;;;;;;6.13;2.60;;;22.20;98.00;;;;;;5112751;28;20479;-65
2022/10/18 11:21:20;;;;;;;5.80;2.93;;;22.40;98.00;;;;;;5112502;28;20484;-66
2022/10/18 11:23:49;;;;;;;3.70;2.37;;;22.50;98.00;;;;;;5112700;28;20459;-65
2022/10/18 11:26:33;;;;;;;5.00;2.50;;;23.00;98.00;;;;;;5112509;28;20463;-64
2022/10/18 11:29:40;;;;;;;4.20;2.60;;;23.60;98.00;;;;;;5112624;28;20458;-65
2022/10/18 11:32:17;;;;;;;6.10;2.83;;;24.10;98.00;;;;;;5111958;28;20443;-66
2022/10/18 11:35:03;;;;;;;3.37;2.20;;;24.60;98.00;;;;;;5112646;28;20497;-67
2022/10/18 11:37:48;;;;;;;3.70;2.60;;;25.10;98.00;;;;;;5111105;28;20463;-66
2022/10/18 11:40:31;;;;;;;4.43;2.80;;;25.60;98.00;;;;;;5112327;28;20479;-66
2022/10/18 11:43:07;;;;;;;4.10;2.53;;;25.60;98.00;;;;;;5112673;28;21021;-65
2022/10/18 11:45:42;;;;;;;4.20;2.97;;;25.60;98.00;;;;;;5112489;28;20516;-65
2022/10/18 11:48:32;;;;;;;6.60;2.60;;;25.80;98.00;;;;;;5112317;28;20454;-65
2022/10/18 11:51:08;;;;;;;3.40;2.57;;;26.00;98.00;;;;;;5112501;28;20450;-64
2022/10/18 11:53:42;;;;;;;5.87;2.77;;;26.00;97.20;;;;;;5112326;28;20462;-65
2022/10/18 11:56:19;;;;;;;5.40;2.60;;;26.30;97.70;;;;;;5112049;28;20458;-65
2022/10/18 11:59:09;;;;;;;4.20;2.67;;;26.70;96.80;;;;;;5111445;28;20454;-66
2022/10/18 12:01:49;;;;;;;4.43;2.53;;;26.60;96.30;;;;;;5112174;28;20454;-67
2022/10/18 12:04:19;;;;;;;3.80;2.60;;;26.40;96.90;;;;;;5112270;28;20454;-66
2022/10/18 12:06:50;;;;;;;2.70;2.40;;;26.00;98.00;;;;;;5111950;28;20458;-66
2022/10/18 12:09:25;;;;;;;5.20;2.80;;;25.70;98.00;;;;;;5111903;28;20455;-66
2022/10/18 12:11:58;;;;;;;5.43;2.70;;;25.30;98.00;;;;;;5111880;28;20524;-66
2022/10/18 12:14:29;;;;;;;2.90;2.30;;;24.80;98.00;;;;;;5111965;28;20451;-66
2022/10/18 12:17:02;;;;;;;3.30;2.40;;;24.30;98.00;;;;;;5111886;28;20469;-66
2022/10/18 12:19:31;;;;;;;4.70;2.60;;;24.00;98.00;;;;;;5111684;28;20482;-66
2022/10/18 12:22:12;;;;;;;4.53;2.60;;;23.80;98.00;;;;;;5111558;28;20884;-66
2022/10/18 12:24:40;;;;;;;3.60;2.40;;;23.90;98.00;;;;;;5111820;28;20465;-66
2022/10/18 12:27:14;;;;;;;3.47;2.30;;;23.80;98.00;;;;;;5111579;28;20482;-66
2022/10/18 12:29:48;;;;;;;5.07;2.60;;;24.10;98.00;;;;;;5111920;28;20875;-66
2022/10/18 12:32:18;;;;;;;4.93;2.43;;;24.30;98.00;;;;;;5111667;28;20462;-66
2022/10/18 12:34:49;;;;;;;4.80;2.70;;;24.60;98.00;;;;;;5111652;28;20451;-66
2022/10/18 12:37:46;;;;;;;3.50;2.53;;;24.80;98.00;;;;;;5111809;28;20455;-66
2022/10/18 12:40:17;;;;;;;3.27;2.30;;;25.10;98.00;;;;;;5111672;28;20487;-66
2022/10/18 12:42:48;;;;;;;4.90;2.53;;;24.70;98.00;;;;;;5112034;28;20500;-66
2022/10/18 12:45:26;;;;;;;5.03;2.60;;;24.60;98.00;;;;;;5111629;28;20627;-65
2022/10/18 12:47:54;;;;;;;4.40;2.70;;;25.00;98.00;;;;;;5111635;28;20458;-66
2022/10/18 12:50:30;;;;;;;4.20;2.90;;;25.10;98.00;;;;;;5111310;28;20939;-66
2022/10/18 12:53:07;;;;;;;4.17;2.57;;;25.40;98.00;;;;;;5111471;28;20454;-66
2022/10/18 12:55:36;;;;;;;4.20;2.70;;;25.80;98.00;;;;;;5111375;28;20538;-66
2022/10/18 12:58:28;;;;;;;7.37;2.43;;;25.60;98.00;;;;;;5111300;28;20957;-65
2022/10/18 13:01:04;;;;;;;6.63;2.83;;;25.30;98.00;;;;;;5111350;28;20471;-66
2022/10/18 13:04:00;;;;;;;3.90;3.00;;;25.40;98.00;;;;;;5111374;28;20454;-66
2022/10/18 13:07:06;;;;;;;4.40;2.67;;;25.80;98.00;;;;;;5111251;28;20451;-66
2022/10/18 13:09:37;;;;;;;5.37;2.77;;;26.00;98.00;;;;;;5112144;28;20457;-66